MMZH/ZIH METAR and TAF weather

Enter ICAO airport designator
Station Type Date Time Source
MMZH METAR 2024/07/23 16:42 UTC NOAA

MMZH 231642Z 15008KT 7SM BKN250 34/22 A2991 RMK 8/008 HZY DSNT CB 3ER QUAD


Station Type Date Time Source
MMZH Decoded METAR 2024/07/23 16:42 UTC NOAA

Ixtapa-Zihuatanejo, Mexico (MMZH) 17-36N 101-28W
Jul 23, 2024 - 12:42 PM EDT / 2024.07.23 1642 UTC
Wind: from the SSE (150 degrees) at 9 MPH (8 KT):0
Visibility: 7 mile(s):0
Sky conditions: mostly cloudy
Weather: Cumulonimbus clouds observed
Temperature: 93 F (34 C)
Heat index: 100.0 F (37.8 C):1
Dew Point: 71 F (22 C)
Relative Humidity: 49%
Pressure (altimeter): 29.91 in. Hg (1012 hPa)
ob: MMZH 231642Z 15008KT 7SM BKN250 34/22 A2991 RMK 8/008 HZY DSNT CB 3ER QUAD
cycle: 16

Station Type Date Time Source
MMZH TAF 2024/07/23 18:55 UTC NOAA